Time;durP1;ratioP1;P1;durP2;ratioP2;P2;SDS_P1;SDS_P2;PMS_P1;PMS_P2;Temp;Humidity;BMP_temperature;BMP_pressure;BME280_temperature;BME280_humidity;BME280_pressure;Samples;Min_cycle;Max_cycle;Signal;HPM_P1;HPM_P2
2023/05/22 04:30:48;;;;;;;18.35;9.25;;;13.80;71.70;;;;;;5831572;22;20054;-86
2023/05/22 04:33:13;;;;;;;16.17;9.32;;;13.80;71.70;;;;;;4972054;28;20112;-85
2023/05/22 04:35:39;;;;;;;16.83;9.63;;;13.80;71.80;;;;;;4973656;28;20027;-86
2023/05/22 04:38:05;;;;;;;19.20;9.63;;;13.90;71.80;;;;;;4991140;28;20037;-86
2023/05/22 04:40:33;;;;;;;21.25;9.18;;;13.80;72.00;;;;;;4991599;28;20034;-85
2023/05/22 04:43:00;;;;;;;15.48;9.88;;;13.80;72.10;;;;;;4978182;28;20023;-86
2023/05/22 04:45:27;;;;;;;17.15;9.02;;;13.80;72.10;;;;;;4971899;28;20490;-86
2023/05/22 04:47:53;;;;;;;16.48;8.95;;;13.80;72.10;;;;;;4971482;28;20588;-81
2023/05/22 04:50:19;;;;;;;15.95;9.13;;;13.80;72.10;;;;;;4990731;28;20052;-84
2023/05/22 04:52:46;;;;;;;20.13;9.73;;;13.80;72.10;;;;;;4991246;28;20429;-82
2023/05/22 04:55:11;;;;;;;14.18;8.30;;;13.90;72.10;;;;;;4991776;28;20650;-79
2023/05/22 04:57:38;;;;;;;15.35;8.75;;;13.90;71.80;;;;;;4974289;28;20022;-79
2023/05/22 05:00:05;;;;;;;17.23;8.88;;;14.00;71.70;;;;;;4974337;28;20133;-79
2023/05/22 05:02:31;;;;;;;17.88;8.20;;;14.00;71.60;;;;;;4993862;28;20025;-79
2023/05/22 05:04:56;;;;;;;16.58;8.30;;;14.00;71.50;;;;;;5004617;28;20029;-79
2023/05/22 05:07:22;;;;;;;18.17;8.68;;;14.10;71.50;;;;;;5001940;28;20030;-80
2023/05/22 05:09:48;;;;;;;17.73;8.60;;;14.00;71.60;;;;;;4996118;28;20061;-79
2023/05/22 05:12:14;;;;;;;13.45;8.23;;;14.10;71.60;;;;;;5012522;28;20106;-81
2023/05/22 05:14:40;;;;;;;18.13;9.25;;;14.10;71.50;;;;;;4983991;28;20109;-77
2023/05/22 05:17:06;;;;;;;14.52;8.82;;;14.10;71.50;;;;;;4986649;28;20049;-77
2023/05/22 05:19:33;;;;;;;13.68;8.05;;;14.20;71.20;;;;;;5004432;28;20042;-79
2023/05/22 05:21:59;;;;;;;14.95;9.00;;;14.20;71.00;;;;;;5005166;28;20025;-78
2023/05/22 05:24:24;;;;;;;16.58;8.57;;;14.20;71.20;;;;;;4988655;28;20038;-78
2023/05/22 05:26:51;;;;;;;16.67;8.40;;;14.20;71.20;;;;;;4998487;28;20037;-77
2023/05/22 05:29:16;;;;;;;15.18;8.20;;;14.20;71.20;;;;;;4994609;28;20031;-77
2023/05/22 05:31:42;;;;;;;18.35;8.07;;;14.20;71.00;;;;;;4974199;28;20046;-78
2023/05/22 05:34:08;;;;;;;15.77;8.98;;;14.20;70.60;;;;;;4976335;28;20493;-77
2023/05/22 05:36:34;;;;;;;12.82;8.07;;;14.30;70.80;;;;;;4976383;28;20057;-78
2023/05/22 05:39:00;;;;;;;19.45;8.50;;;14.30;71.00;;;;;;4994089;28;20057;-78
2023/05/22 05:41:26;;;;;;;12.00;7.50;;;14.30;70.30;;;;;;4994701;28;20786;-78
2023/05/22 05:43:52;;;;;;;18.15;7.75;;;14.30;70.60;;;;;;4973539;28;20030;-78
2023/05/22 05:46:18;;;;;;;14.95;7.57;;;14.30;70.80;;;;;;4982410;28;20114;-72
2023/05/22 05:48:44;;;;;;;14.77;7.18;;;14.40;71.10;;;;;;4995152;28;20057;-79
2023/05/22 05:51:10;;;;;;;16.33;8.38;;;14.40;70.90;;;;;;4997288;28;20054;-80
2023/05/22 05:53:35;;;;;;;16.25;7.25;;;14.50;70.60;;;;;;4998625;28;20030;-78
2023/05/22 05:56:02;;;;;;;14.93;7.80;;;14.50;70.20;;;;;;4985707;28;20061;-80
2023/05/22 05:58:28;;;;;;;12.90;6.93;;;14.50;70.50;;;;;;4992147;28;20109;-80
2023/05/22 06:00:54;;;;;;;14.15;7.18;;;14.60;70.60;;;;;;4997678;28;20058;-79
2023/05/22 06:03:19;;;;;;;13.00;6.50;;;14.50;70.10;;;;;;4997057;28;20026;-80
2023/05/22 06:05:45;;;;;;;14.77;8.25;;;14.60;70.60;;;;;;4995206;28;20034;-79
2023/05/22 06:08:12;;;;;;;11.43;6.60;;;14.60;69.70;;;;;;4997118;28;20034;-79
2023/05/22 06:10:38;;;;;;;14.48;7.32;;;14.60;69.80;;;;;;4985348;28;20040;-79
2023/05/22 06:13:04;;;;;;;13.57;6.53;;;14.70;70.20;;;;;;5016548;28;20026;-79
2023/05/22 06:15:30;;;;;;;10.68;6.30;;;14.70;69.80;;;;;;4998874;28;20031;-79
2023/05/22 06:17:56;;;;;;;12.48;6.68;;;14.70;70.20;;;;;;4998557;28;20373;-79
2023/05/22 06:20:23;;;;;;;13.25;6.25;;;14.80;69.80;;;;;;4998122;28;20045;-79
2023/05/22 06:22:52;;;;;;;12.15;5.50;;;14.80;70.50;;;;;;4985208;28;20037;-80
2023/05/22 06:25:18;;;;;;;15.35;5.95;;;14.80;70.10;;;;;;4961846;28;20030;-82
2023/05/22 06:27:43;;;;;;;11.75;5.95;;;14.90;69.40;;;;;;4978678;28;20047;-81
2023/05/22 06:30:09;;;;;;;13.90;6.18;;;15.00;69.10;;;;;;4997819;28;20497;-78
2023/05/22 06:32:35;;;;;;;15.02;6.15;;;15.00;69.20;;;;;;4976965;28;20532;-80
2023/05/22 06:35:01;;;;;;;10.85;5.35;;;15.00;68.70;;;;;;4977962;28;20030;-81
2023/05/22 06:37:27;;;;;;;7.57;5.07;;;15.10;69.80;;;;;;4977367;28;20027;-80
2023/05/22 06:39:53;;;;;;;9.13;4.75;;;15.10;69.30;;;;;;4997152;28;20144;-79
2023/05/22 06:42:18;;;;;;;12.43;5.30;;;15.20;69.10;;;;;;4997985;28;20515;-79
2023/05/22 06:44:44;;;;;;;10.63;5.28;;;15.30;68.20;;;;;;4997386;28;20034;-79
2023/05/22 06:47:10;;;;;;;10.63;5.05;;;15.30;68.40;;;;;;4995171;28;20041;-79
2023/05/22 06:49:35;;;;;;;9.38;4.35;;;15.40;68.10;;;;;;4991997;28;20428;-80
2023/05/22 06:52:01;;;;;;;11.30;5.10;;;15.50;67.60;;;;;;4979810;28;20027;-79
2023/05/22 06:54:28;;;;;;;9.57;4.63;;;15.50;68.10;;;;;;4975155;28;20026;-79
2023/05/22 06:56:55;;;;;;;7.75;4.65;;;15.70;67.30;;;;;;4991315;28;20088;-79
2023/05/22 06:59:20;;;;;;;9.10;5.05;;;15.70;67.00;;;;;;4977024;28;20057;-79
2023/05/22 07:01:46;;;;;;;13.40;6.07;;;15.80;66.90;;;;;;4990906;28;20027;-79
2023/05/22 07:04:12;;;;;;;7.80;4.60;;;15.80;66.40;;;;;;4993329;28;20026;-78
2023/05/22 07:06:40;;;;;;;7.20;4.70;;;15.90;66.30;;;;;;4979960;28;20080;-79
2023/05/22 07:09:07;;;;;;;7.70;4.20;;;16.00;66.60;;;;;;4992648;28;20035;-79
2023/05/22 07:11:34;;;;;;;10.40;4.55;;;16.10;65.70;;;;;;4984107;28;20409;-79
2023/05/22 07:14:00;;;;;;;8.02;4.18;;;16.20;65.70;;;;;;4994392;28;20033;-79
2023/05/22 07:16:26;;;;;;;9.02;4.90;;;16.40;65.40;;;;;;4996715;28;20393;-79
2023/05/22 07:18:52;;;;;;;7.78;4.45;;;16.80;63.90;;;;;;4990440;28;20030;-79
2023/05/22 07:21:18;;;;;;;7.72;4.05;;;17.60;62.60;;;;;;4970609;28;20026;-79
2023/05/22 07:23:43;;;;;;;6.60;3.97;;;19.20;58.80;;;;;;4993565;28;20086;-78
2023/05/22 07:26:09;;;;;;;9.98;4.10;;;20.30;56.10;;;;;;4994436;28;20548;-79
2023/05/22 07:28:34;;;;;;;9.73;3.70;;;22.80;51.00;;;;;;4993160;28;20053;-79
2023/05/22 07:31:00;;;;;;;8.45;3.58;;;24.80;45.30;;;;;;4994043;28;20069;-79
2023/05/22 07:33:26;;;;;;;6.57;3.33;;;26.50;42.20;;;;;;4996357;28;20053;-78
2023/05/22 07:35:52;;;;;;;6.85;3.90;;;27.80;39.20;;;;;;4977024;28;20117;-77
2023/05/22 07:38:17;;;;;;;5.75;3.70;;;28.90;36.70;;;;;;4994083;28;20044;-78
2023/05/22 07:40:43;;;;;;;8.82;4.32;;;29.80;35.30;;;;;;4996479;28;20144;-78
2023/05/22 07:43:09;;;;;;;8.82;4.03;;;30.50;33.60;;;;;;4976396;28;20128;-78
2023/05/22 07:45:35;;;;;;;8.15;3.75;;;30.80;33.00;;;;;;4996724;28;20026;-78
2023/05/22 07:48:03;;;;;;;10.80;3.78;;;31.40;32.50;;;;;;4995902;28;20029;-78
2023/05/22 07:50:29;;;;;;;7.93;3.88;;;31.90;31.50;;;;;;4979173;28;20092;-77
2023/05/22 07:52:55;;;;;;;9.27;4.13;;;32.50;29.80;;;;;;4996581;28;20033;-78
2023/05/22 07:55:21;;;;;;;6.18;3.92;;;33.10;29.90;;;;;;4995451;28;20026;-77
2023/05/22 07:57:46;;;;;;;8.50;3.53;;;33.60;29.50;;;;;;4995555;28;20027;-78
2023/05/22 08:00:13;;;;;;;6.95;4.10;;;34.00;28.90;;;;;;4978987;28;20118;-78
2023/05/22 08:02:41;;;;;;;7.43;4.07;;;34.40;27.70;;;;;;4993923;28;20049;-78
2023/05/22 08:05:08;;;;;;;6.35;3.97;;;34.80;28.10;;;;;;4996555;28;20107;-78
2023/05/22 08:07:35;;;;;;;8.82;4.05;;;35.10;27.30;;;;;;4995910;28;20039;-77
2023/05/22 08:10:11;;;;;;;6.65;3.60;;;35.50;27.30;;;;;;4996134;28;20022;-78
2023/05/22 08:12:37;;;;;;;7.03;4.53;;;35.60;25.90;;;;;;4975731;28;20023;-78
2023/05/22 08:15:03;;;;;;;7.25;3.38;;;35.70;26.50;;;;;;4995811;28;20033;-78
2023/05/22 08:17:29;;;;;;;7.25;3.65;;;35.90;25.00;;;;;;4992902;28;20113;-78
2023/05/22 08:19:55;;;;;;;7.53;3.70;;;36.10;25.50;;;;;;4995926;28;20058;-78
2023/05/22 08:22:20;;;;;;;7.82;3.83;;;36.40;25.60;;;;;;4997823;28;20108;-77
2023/05/22 08:24:46;;;;;;;6.82;3.90;;;36.60;25.00;;;;;;4996073;28;20574;-77
2023/05/22 08:27:11;;;;;;;6.68;3.70;;;36.80;24.90;;;;;;4995621;28;20508;-77
2023/05/22 08:29:37;;;;;;;8.25;3.90;;;36.70;24.90;;;;;;4995665;28;20034;-78
2023/05/22 08:32:03;;;;;;;6.38;4.05;;;36.60;24.70;;;;;;4991751;28;20038;-77
2023/05/22 08:34:28;;;;;;;7.72;3.60;;;36.50;25.20;;;;;;4995574;28;20022;-78
2023/05/22 08:36:54;;;;;;;8.90;3.80;;;36.40;25.10;;;;;;4995830;28;20029;-77
2023/05/22 08:39:20;;;;;;;6.55;3.90;;;36.30;25.30;;;;;;4978506;28;20165;-78
2023/05/22 08:41:46;;;;;;;7.47;4.38;;;36.20;25.00;;;;;;4993441;28;20062;-77
2023/05/22 08:44:12;;;;;;;6.47;3.80;;;36.10;25.00;;;;;;4978071;28;20503;-77
2023/05/22 08:46:40;;;;;;;8.00;3.85;;;36.10;24.90;;;;;;4977416;28;20030;-77
2023/05/22 08:49:11;;;;;;;8.77;3.83;;;36.20;24.90;;;;;;4994927;28;20043;-78
2023/05/22 08:51:38;;;;;;;8.45;4.13;;;36.10;25.00;;;;;;4995257;28;20022;-77
2023/05/22 08:54:06;;;;;;;5.70;3.70;;;36.10;25.20;;;;;;4992273;28;20109;-77
2023/05/22 08:56:32;;;;;;;7.95;3.50;;;36.10;24.30;;;;;;4991563;28;20030;-77
2023/05/22 08:59:00;;;;;;;9.27;4.00;;;36.30;25.10;;;;;;4994933;28;20030;-77
2023/05/22 09:01:28;;;;;;;9.32;4.05;;;36.40;25.10;;;;;;4992401;28;20029;-77
2023/05/22 09:03:58;;;;;;;6.00;4.03;;;36.60;24.40;;;;;;4995684;28;20404;-77
2023/05/22 09:06:23;;;;;;;7.47;3.80;;;36.40;24.80;;;;;;4994627;28;20461;-77
2023/05/22 09:08:50;;;;;;;7.32;3.92;;;36.40;25.10;;;;;;4992165;28;20084;-77
2023/05/22 09:11:16;;;;;;;6.88;4.18;;;36.60;24.90;;;;;;4996357;28;20015;-78
2023/05/22 09:13:43;;;;;;;6.90;3.60;;;36.60;25.10;;;;;;4995562;28;20655;-78
2023/05/22 09:16:11;;;;;;;5.80;4.03;;;36.60;25.20;;;;;;4976614;28;20023;-77
2023/05/22 09:18:37;;;;;;;6.80;4.63;;;36.80;25.10;;;;;;4995124;28;20026;-78
2023/05/22 09:21:05;;;;;;;6.95;3.72;;;36.20;25.10;;;;;;4995060;28;20580;-77
2023/05/22 09:23:31;;;;;;;4.90;3.45;;;36.10;25.40;;;;;;4977472;28;20061;-77
2023/05/22 09:25:58;;;;;;;6.15;3.65;;;35.80;25.40;;;;;;4998719;28;20018;-78
2023/05/22 09:28:24;;;;;;;10.05;4.05;;;35.30;25.50;;;;;;4998886;28;20057;-77
2023/05/22 09:30:51;;;;;;;5.95;3.63;;;35.20;25.60;;;;;;4979955;28;20041;-77
2023/05/22 09:33:18;;;;;;;5.47;3.90;;;34.30;26.00;;;;;;4998745;28;20022;-77
2023/05/22 09:35:45;;;;;;;6.20;3.50;;;33.80;26.80;;;;;;4998616;28;20018;-77
2023/05/22 09:38:12;;;;;;;6.75;3.88;;;33.80;27.10;;;;;;4996683;28;20564;-77
2023/05/22 09:40:39;;;;;;;5.68;3.42;;;34.10;26.80;;;;;;4998554;28;20076;-77
2023/05/22 09:43:11;;;;;;;7.35;3.30;;;34.10;26.70;;;;;;4998729;28;20051;-77
2023/05/22 09:45:37;;;;;;;5.10;3.45;;;34.50;26.50;;;;;;4996180;28;20034;-77
2023/05/22 09:48:08;;;;;;;6.18;3.10;;;34.90;26.10;;;;;;4998193;28;20034;-77
2023/05/22 09:50:35;;;;;;;6.00;3.60;;;35.50;25.40;;;;;;4996388;28;20034;-77
2023/05/22 09:53:03;;;;;;;6.63;3.65;;;35.80;25.10;;;;;;4998812;28;20081;-77
2023/05/22 09:55:30;;;;;;;7.30;4.03;;;36.20;25.20;;;;;;4998866;28;20038;-77
2023/05/22 09:57:57;;;;;;;5.63;3.38;;;36.30;24.60;;;;;;4997852;28;20030;-78
2023/05/22 10:00:24;;;;;;;6.35;3.72;;;36.20;24.60;;;;;;4980594;28;20026;-77
2023/05/22 10:02:57;;;;;;;7.22;3.65;;;36.10;24.80;;;;;;4980833;28;20041;-77
2023/05/22 10:05:28;;;;;;;5.40;3.55;;;36.20;25.10;;;;;;4980950;28;20018;-77
2023/05/22 10:07:58;;;;;;;6.50;3.78;;;36.00;25.20;;;;;;4995102;28;20031;-78
2023/05/22 10:10:24;;;;;;;6.00;3.45;;;35.00;25.60;;;;;;4999717;28;20024;-77
2023/05/22 10:12:55;;;;;;;6.45;3.60;;;34.40;26.00;;;;;;4995597;28;20054;-77
2023/05/22 10:15:21;;;;;;;8.57;4.05;;;34.20;26.50;;;;;;4995914;28;20150;-77
2023/05/22 10:17:48;;;;;;;5.80;3.97;;;34.10;27.10;;;;;;4996971;28;20023;-77
2023/05/22 10:20:15;;;;;;;5.82;3.80;;;33.70;27.20;;;;;;4981198;28;20049;-77
2023/05/22 10:22:41;;;;;;;6.70;3.97;;;33.60;27.20;;;;;;4997531;28;20023;-77
2023/05/22 10:25:07;;;;;;;7.80;4.47;;;33.00;27.50;;;;;;4980290;28;20038;-77
2023/05/22 10:27:33;;;;;;;9.55;4.22;;;32.40;28.60;;;;;;4996046;28;20037;-77
2023/05/22 10:30:20;;;;;;;5.22;4.03;;;32.00;29.60;;;;;;5001382;28;20030;-77
2023/05/22 10:32:55;;;;;;;7.05;3.53;;;31.70;29.40;;;;;;4979988;28;20046;-77
2023/05/22 10:35:24;;;;;;;6.13;3.95;;;31.30;29.60;;;;;;4978098;28;20027;-76
2023/05/22 10:37:50;;;;;;;;;;;30.80;30.40;;;;;;4998589;28;20026;-77
2023/05/22 10:40:33;;;;;;;8.00;4.10;;;30.30;30.80;;;;;;4997766;28;19912;-77
2023/05/22 10:43:00;;;;;;;8.27;4.50;;;30.00;32.20;;;;;;4996236;28;20037;-77
2023/05/22 10:45:30;;;;;;;6.32;4.18;;;29.70;32.70;;;;;;4979948;28;20035;-77
2023/05/22 10:48:10;;;;;;;8.43;3.60;;;29.50;33.20;;;;;;4997369;28;20038;-77
2023/05/22 10:50:37;;;;;;;6.78;3.55;;;29.30;33.00;;;;;;4995214;28;20556;-77
2023/05/22 10:53:19;;;;;;;8.45;4.45;;;28.80;33.10;;;;;;4997677;28;20036;-77
2023/05/22 10:55:56;;;;;;;6.47;3.95;;;28.60;33.90;;;;;;4997144;28;20106;-77
2023/05/22 10:58:29;;;;;;;6.72;3.50;;;28.50;33.90;;;;;;4980223;28;20116;-76
2023/05/22 11:01:16;;;;;;;5.95;3.38;;;28.30;34.80;;;;;;4992525;28;20019;-77
2023/05/22 11:03:56;;;;;;;6.25;3.33;;;28.00;35.00;;;;;;4996523;28;20041;-77
2023/05/22 11:06:42;;;;;;;7.22;4.00;;;27.80;34.70;;;;;;4996291;28;20053;-76
2023/05/22 11:09:28;;;;;;;5.82;3.28;;;27.50;35.50;;;;;;4976328;28;20026;-76
2023/05/22 11:12:11;;;;;;;5.90;2.97;;;27.40;36.10;;;;;;4993345;28;20018;-79
2023/05/22 11:14:37;;;;;;;7.10;3.22;;;27.20;35.80;;;;;;4995900;28;20440;-79
2023/05/22 11:17:05;;;;;;;5.43;3.33;;;27.10;36.00;;;;;;4996675;28;20870;-78
2023/05/22 11:19:30;;;;;;;5.90;3.85;;;26.90;35.70;;;;;;4994884;28;20033;-78
2023/05/22 11:22:00;;;;;;;7.82;3.97;;;26.80;36.30;;;;;;4996700;28;20416;-78
2023/05/22 11:24:30;;;;;;;;;;;26.80;36.60;;;;;;4997185;28;20033;-78
2023/05/22 11:27:02;;;;;;;8.05;3.63;;;26.70;36.50;;;;;;4996841;28;20404;-78
2023/05/22 11:29:29;;;;;;;6.63;3.03;;;26.60;36.50;;;;;;4989343;28;20186;-77
2023/05/22 11:31:56;;;;;;;7.15;3.95;;;26.50;36.80;;;;;;4974905;28;20505;-79
2023/05/22 11:34:23;;;;;;;6.55;3.42;;;26.40;36.60;;;;;;4996072;28;20597;-76
2023/05/22 11:36:50;;;;;;;6.70;3.40;;;26.40;37.80;;;;;;4996267;28;20029;-79
2023/05/22 11:39:16;;;;;;;5.65;3.40;;;26.30;37.30;;;;;;4997106;28;20023;-78
2023/05/22 11:41:42;;;;;;;10.27;3.83;;;26.30;37.40;;;;;;4980771;28;20077;-76
2023/05/22 11:44:07;;;;;;;6.95;3.30;;;26.30;37.50;;;;;;4997249;28;20023;-81
2023/05/22 11:46:33;;;;;;;6.15;3.67;;;26.20;38.00;;;;;;4974809;28;20085;-79
2023/05/22 11:48:59;;;;;;;7.20;4.28;;;26.20;38.40;;;;;;4977868;28;20031;-82
2023/05/22 11:51:27;;;;;;;7.47;3.60;;;26.20;38.40;;;;;;4960881;28;20058;-81
2023/05/22 11:53:53;;;;;;;5.82;4.00;;;26.30;37.90;;;;;;4977916;28;20031;-79
2023/05/22 11:56:20;;;;;;;8.07;4.18;;;26.20;38.10;;;;;;4978000;28;20023;-80
2023/05/22 11:58:48;;;;;;;7.68;4.10;;;26.10;37.90;;;;;;4979948;28;20084;-79
2023/05/22 12:01:14;;;;;;;7.70;4.10;;;26.10;38.00;;;;;;4996631;28;20029;-80
2023/05/22 12:03:40;;;;;;;8.35;4.57;;;26.10;38.10;;;;;;4996389;28;20042;-77
2023/05/22 12:06:07;;;;;;;7.28;3.90;;;26.00;38.00;;;;;;4994894;28;20400;-78
2023/05/22 12:08:33;;;;;;;7.95;3.67;;;26.10;38.70;;;;;;4995281;28;20509;-79
2023/05/22 12:10:59;;;;;;;5.70;3.22;;;26.00;37.90;;;;;;4996461;28;20165;-77
2023/05/22 12:13:26;;;;;;;6.68;3.70;;;26.00;38.90;;;;;;4993141;28;20086;-77
2023/05/22 12:15:56;;;;;;;10.10;4.05;;;26.00;38.80;;;;;;4996112;28;20485;-77
2023/05/22 12:18:21;;;;;;;8.68;4.43;;;26.00;38.60;;;;;;5002746;28;20763;-76
2023/05/22 12:20:53;;;;;;;7.35;3.55;;;26.10;38.80;;;;;;4992634;28;20026;-76
2023/05/22 12:23:25;;;;;;;6.68;4.13;;;26.20;39.00;;;;;;4982162;28;20037;-76
2023/05/22 12:25:58;;;;;;;5.93;3.63;;;26.30;38.50;;;;;;4990620;28;20065;-76
2023/05/22 12:28:24;;;;;;;8.38;4.20;;;26.10;39.20;;;;;;4995714;28;20120;-76
2023/05/22 12:30:54;;;;;;;11.18;3.95;;;26.20;39.60;;;;;;4993538;28;20038;-76
2023/05/22 12:33:28;;;;;;;5.88;3.85;;;26.20;39.20;;;;;;4993178;28;20029;-76
2023/05/22 12:35:57;;;;;;;5.93;3.65;;;26.10;38.90;;;;;;4993678;28;20535;-76
2023/05/22 12:38:24;;;;;;;8.45;4.32;;;26.00;39.30;;;;;;4995878;28;20370;-76
2023/05/22 12:40:50;;;;;;;10.35;4.80;;;26.00;39.20;;;;;;4978573;28;20080;-76
2023/05/22 12:43:16;;;;;;;8.48;4.63;;;26.10;39.90;;;;;;4975884;28;20030;-77
2023/05/22 12:45:41;;;;;;;9.77;4.10;;;26.10;39.80;;;;;;4978034;28;20023;-76
2023/05/22 12:48:08;;;;;;;8.35;4.13;;;26.00;39.70;;;;;;4993631;28;20041;-76
2023/05/22 12:50:34;;;;;;;9.25;4.40;;;26.00;40.40;;;;;;4996020;28;20077;-76
2023/05/22 12:53:03;;;;;;;9.98;4.88;;;26.00;40.90;;;;;;4977827;28;20030;-76
2023/05/22 12:55:28;;;;;;;12.50;4.10;;;26.00;40.30;;;;;;4995685;28;20496;-76
2023/05/22 12:57:54;;;;;;;9.07;4.03;;;26.00;39.90;;;;;;4995121;28;20027;-76
2023/05/22 13:00:24;;;;;;;9.25;4.72;;;26.00;40.10;;;;;;4994807;28;20030;-76
2023/05/22 13:02:50;;;;;;;6.90;3.83;;;25.90;40.10;;;;;;4975314;28;20034;-76
2023/05/22 13:05:16;;;;;;;7.18;3.45;;;25.90;40.50;;;;;;4994936;28;20026;-76
2023/05/22 13:07:41;;;;;;;7.30;4.10;;;26.00;40.70;;;;;;4993506;28;20030;-76
2023/05/22 13:10:08;;;;;;;7.53;3.38;;;26.10;40.20;;;;;;4977660;28;20505;-76
2023/05/22 13:12:33;;;;;;;4.85;3.17;;;26.00;40.30;;;;;;4995366;28;20062;-76
2023/05/22 13:15:00;;;;;;;6.10;4.03;;;26.00;41.40;;;;;;4994623;28;20026;-76
2023/05/22 13:17:26;;;;;;;7.90;4.60;;;26.00;40.60;;;;;;4995315;28;20031;-76
2023/05/22 13:19:54;;;;;;;6.95;3.70;;;26.10;40.60;;;;;;4995854;28;20097;-76
2023/05/22 13:22:20;;;;;;;6.88;4.07;;;26.30;40.30;;;;;;4967587;28;20118;-76
2023/05/22 13:24:46;;;;;;;6.38;3.70;;;26.20;40.00;;;;;;4984356;28;20527;-76
2023/05/22 13:27:11;;;;;;;8.63;4.20;;;26.00;40.50;;;;;;4995437;28;20022;-76
2023/05/22 13:29:37;;;;;;;6.85;3.55;;;25.90;40.80;;;;;;4988083;28;20097;-76
2023/05/22 13:32:03;;;;;;;11.95;4.47;;;25.90;41.00;;;;;;4975026;28;20124;-76
2023/05/22 13:34:29;;;;;;;9.13;3.92;;;25.70;41.10;;;;;;4994429;28;20034;-76
2023/05/22 13:36:55;;;;;;;7.35;3.80;;;25.70;41.00;;;;;;4977318;28;20109;-76
2023/05/22 13:39:21;;;;;;;7.82;3.72;;;25.80;41.50;;;;;;4977362;28;20484;-76
2023/05/22 13:41:47;;;;;;;6.50;3.78;;;26.00;40.80;;;;;;4995286;28;20098;-76
2023/05/22 13:44:12;;;;;;;7.20;3.63;;;26.00;41.50;;;;;;4994738;28;20054;-76
2023/05/22 13:46:38;;;;;;;7.68;3.13;;;26.00;41.30;;;;;;4995068;28;20497;-76
2023/05/22 13:49:04;;;;;;;7.53;3.35;;;26.00;41.90;;;;;;4994542;28;20022;-76
2023/05/22 13:51:29;;;;;;;7.93;3.97;;;25.90;41.50;;;;;;4995369;28;20125;-76
2023/05/22 13:53:55;;;;;;;7.90;3.88;;;25.90;41.40;;;;;;4977288;28;20025;-76
2023/05/22 13:56:22;;;;;;;8.02;4.22;;;25.90;41.30;;;;;;4993663;28;20149;-76
2023/05/22 13:58:48;;;;;;;7.40;3.42;;;25.80;41.70;;;;;;4994377;28;20030;-76
2023/05/22 14:01:14;;;;;;;7.03;4.30;;;25.80;42.40;;;;;;4974657;28;20038;-76
2023/05/22 14:03:39;;;;;;;7.50;4.25;;;25.80;41.70;;;;;;4992745;28;20027;-76
2023/05/22 14:06:05;;;;;;;6.72;3.72;;;25.80;41.50;;;;;;4991275;28;20125;-76
2023/05/22 14:08:31;;;;;;;8.32;4.00;;;25.80;42.20;;;;;;4994749;28;20102;-76
2023/05/22 14:10:56;;;;;;;4.72;3.22;;;25.70;42.00;;;;;;4975232;28;20030;-76
2023/05/22 14:13:22;;;;;;;7.32;3.53;;;25.60;42.60;;;;;;4998230;28;20081;-76
2023/05/22 14:15:48;;;;;;;6.50;3.67;;;25.60;42.50;;;;;;4998023;28;20081;-76
2023/05/22 14:18:17;;;;;;;7.00;3.65;;;25.50;42.30;;;;;;4998171;28;20045;-76
2023/05/22 14:20:44;;;;;;;7.13;3.90;;;25.50;43.00;;;;;;5000499;28;20410;-76
2023/05/22 14:23:13;;;;;;;7.50;3.63;;;25.40;43.00;;;;;;5000139;28;20038;-76
2023/05/22 14:25:42;;;;;;;7.70;3.83;;;25.30;42.90;;;;;;4974779;28;20081;-76
2023/05/22 14:28:08;;;;;;;9.15;4.10;;;25.40;42.90;;;;;;4996449;28;20026;-76
2023/05/22 14:30:34;;;;;;;6.65;3.28;;;25.30;42.90;;;;;;4981586;28;20137;-76
2023/05/22 14:33:00;;;;;;;9.38;3.70;;;25.30;43.50;;;;;;4980027;28;20050;-76
2023/05/22 14:35:26;;;;;;;7.00;3.58;;;25.40;43.20;;;;;;4995142;28;20711;-76
2023/05/22 14:37:51;;;;;;;8.50;3.45;;;25.40;43.30;;;;;;4997093;28;20386;-76
2023/05/22 14:40:17;;;;;;;6.32;3.63;;;25.50;43.50;;;;;;4997822;28;20121;-76
2023/05/22 14:42:43;;;;;;;5.20;3.45;;;25.50;43.30;;;;;;4997478;28;20505;-76
2023/05/22 14:45:09;;;;;;;6.40;3.35;;;25.50;43.30;;;;;;4996599;28;20037;-76
2023/05/22 14:47:35;;;;;;;7.22;3.83;;;25.60;43.20;;;;;;4997582;28;20030;-76
2023/05/22 14:50:00;;;;;;;6.65;3.65;;;25.50;43.30;;;;;;4997986;28;20388;-75
2023/05/22 14:52:26;;;;;;;7.68;3.30;;;25.60;42.50;;;;;;4996439;28;20038;-75
2023/05/22 14:54:52;;;;;;;7.07;3.55;;;25.60;43.10;;;;;;4978962;28;20019;-75
2023/05/22 14:57:17;;;;;;;5.47;3.53;;;25.60;43.10;;;;;;4997660;28;20023;-75
2023/05/22 14:59:43;;;;;;;7.90;3.88;;;25.60;43.20;;;;;;4973856;28;20038;-75
2023/05/22 15:02:08;;;;;;;6.38;3.42;;;25.70;42.60;;;;;;4997313;28;20365;-76
2023/05/22 15:04:34;;;;;;;6.90;3.53;;;25.70;42.70;;;;;;4979172;28;20039;-75
2023/05/22 15:07:00;;;;;;;6.07;3.33;;;25.70;42.50;;;;;;4997248;28;20081;-76
2023/05/22 15:09:26;;;;;;;8.60;4.15;;;25.60;43.10;;;;;;4996915;28;20030;-76
2023/05/22 15:11:52;;;;;;;7.75;3.63;;;25.50;43.10;;;;;;4982728;28;20117;-75
2023/05/22 15:14:18;;;;;;;6.53;3.20;;;25.50;42.80;;;;;;4996776;28;20026;-76
2023/05/22 15:16:44;;;;;;;7.70;3.80;;;25.50;43.40;;;;;;4996687;28;20022;-76
2023/05/22 15:19:10;;;;;;;5.63;3.10;;;25.50;43.00;;;;;;4979141;28;20053;-76
2023/05/22 15:21:35;;;;;;;6.22;3.75;;;25.60;43.10;;;;;;4996861;28;20049;-76
2023/05/22 15:24:02;;;;;;;5.47;3.55;;;25.70;43.10;;;;;;4978880;28;20080;-76
2023/05/22 15:26:27;;;;;;;8.30;4.03;;;25.70;42.90;;;;;;4996997;28;20026;-76
2023/05/22 15:28:53;;;;;;;5.65;3.10;;;25.60;42.60;;;;;;4997394;28;20117;-75
2023/05/22 15:31:18;;;;;;;9.18;4.18;;;25.60;43.10;;;;;;4979468;28;20959;-82
2023/05/22 15:33:45;;;;;;;8.93;3.42;;;25.60;42.90;;;;;;4977979;28;20026;-76
2023/05/22 15:36:10;;;;;;;7.07;3.15;;;25.60;43.00;;;;;;4999614;28;20026;-77
2023/05/22 15:38:36;;;;;;;7.35;3.60;;;25.60;43.80;;;;;;5000626;28;20025;-76
2023/05/22 15:41:02;;;;;;;7.10;3.65;;;25.60;44.10;;;;;;5011741;28;20033;-76
2023/05/22 15:43:27;;;;;;;7.82;3.67;;;25.60;44.30;;;;;;5005230;28;20044;-77
2023/05/22 15:45:53;;;;;;;5.70;3.72;;;25.60;44.50;;;;;;5003838;28;20044;-76
2023/05/22 15:48:19;;;;;;;5.65;3.08;;;25.60;45.20;;;;;;5003866;28;20035;-75
2023/05/22 15:50:45;;;;;;;7.97;3.90;;;25.60;45.00;;;;;;4985284;28;20482;-76
2023/05/22 15:53:10;;;;;;;4.40;2.92;;;25.60;44.60;;;;;;5000462;28;20464;-75
2023/05/22 15:55:36;;;;;;;7.25;4.43;;;25.60;44.90;;;;;;5013231;28;20025;-76
2023/05/22 15:58:04;;;;;;;6.88;2.95;;;25.50;45.60;;;;;;5005673;28;20433;-75
2023/05/22 16:00:31;;;;;;;7.00;3.85;;;25.50;46.00;;;;;;5001745;28;20045;-75
2023/05/22 16:02:56;;;;;;;7.75;4.25;;;25.50;45.50;;;;;;5002952;28;20136;-75
2023/05/22 16:05:22;;;;;;;8.43;4.35;;;25.40;45.10;;;;;;5001230;28;20069;-75
2023/05/22 16:07:47;;;;;;;10.25;4.13;;;25.30;45.20;;;;;;5001626;28;20022;-75
2023/05/22 16:10:13;;;;;;;9.65;3.88;;;25.30;45.50;;;;;;4999350;28;20042;-75
2023/05/22 16:12:40;;;;;;;7.50;4.03;;;25.30;45.40;;;;;;5003049;28;20014;-75
2023/05/22 16:15:06;;;;;;;7.20;3.65;;;25.20;45.70;;;;;;4995720;28;20014;-75
2023/05/22 16:17:32;;;;;;;7.32;3.90;;;25.10;45.80;;;;;;4994507;28;20113;-76
2023/05/22 16:19:57;;;;;;;5.45;3.58;;;25.10;45.90;;;;;;4995245;28;20061;-76
2023/05/22 16:22:23;;;;;;;9.55;3.70;;;25.00;45.90;;;;;;4999660;28;20484;-76
2023/05/22 16:24:49;;;;;;;10.35;4.45;;;25.00;46.10;;;;;;4991084;28;20057;-75
2023/05/22 16:27:14;;;;;;;10.23;3.80;;;24.90;46.60;;;;;;4990689;28;20058;-80
2023/05/22 16:29:40;;;;;;;8.90;4.03;;;24.90;46.70;;;;;;4996960;28;20034;-77
2023/05/22 16:32:07;;;;;;;7.25;4.07;;;24.80;46.50;;;;;;4995625;28;20063;-77
2023/05/22 16:34:32;;;;;;;7.57;4.00;;;24.80;46.00;;;;;;5003589;28;20026;-80
2023/05/22 16:36:59;;;;;;;8.30;4.38;;;24.70;46.50;;;;;;5003263;28;20037;-76
2023/05/22 16:39:28;;;;;;;6.82;3.70;;;24.70;46.80;;;;;;5000184;28;20033;-74
2023/05/22 16:41:54;;;;;;;7.97;3.75;;;24.60;46.90;;;;;;5000536;28;20492;-76
2023/05/22 16:44:19;;;;;;;16.70;5.82;;;24.60;47.20;;;;;;4989238;28;20022;-76
2023/05/22 16:46:45;;;;;;;10.98;5.13;;;24.60;47.20;;;;;;5000211;28;20026;-76
2023/05/22 16:49:11;;;;;;;8.25;4.68;;;24.60;47.20;;;;;;4996965;28;20097;-76
2023/05/22 16:51:36;;;;;;;9.05;3.80;;;24.60;47.10;;;;;;4996403;28;20030;-76
2023/05/22 16:54:02;;;;;;;6.35;3.90;;;24.50;46.90;;;;;;4999533;28;20018;-76
2023/05/22 16:56:27;;;;;;;7.47;3.72;;;24.50;47.40;;;;;;5000162;28;20535;-76
2023/05/22 16:58:53;;;;;;;10.63;3.92;;;24.40;47.40;;;;;;4999890;28;20030;-76
2023/05/22 17:01:20;;;;;;;10.15;4.32;;;24.30;47.60;;;;;;4999177;28;20030;-76
2023/05/22 17:03:46;;;;;;;9.13;5.13;;;24.20;47.80;;;;;;5001954;28;20026;-76
2023/05/22 17:06:11;;;;;;;7.85;4.20;;;24.10;47.60;;;;;;4985929;28;20404;-77
2023/05/22 17:08:37;;;;;;;8.90;4.47;;;24.00;47.70;;;;;;5004378;28;20038;-77
2023/05/22 17:11:02;;;;;;;10.85;4.45;;;24.00;48.00;;;;;;4994181;28;20042;-77
2023/05/22 17:13:28;;;;;;;9.23;4.40;;;23.90;48.00;;;;;;5001324;28;20031;-77